createdAt,value
2022-10-07T00:01:06.353Z,102262.03
2022-10-07T00:03:34.720Z,102261.72
2022-10-07T00:06:05.098Z,102262.16
2022-10-07T00:08:33.519Z,102251.34
2022-10-07T00:11:06.001Z,102246.06
2022-10-07T00:13:33.902Z,102250.41
2022-10-07T00:16:07.463Z,102258.09
2022-10-07T00:18:35.922Z,102245.91
2022-10-07T00:21:05.333Z,102246.78
2022-10-07T00:23:33.061Z,102243.50
2022-10-07T00:26:01.652Z,102243.78
2022-10-07T00:28:29.556Z,102239.50
2022-10-07T00:31:01.014Z,102249.84
2022-10-07T00:33:33.733Z,102242.88
2022-10-07T00:36:01.425Z,102243.03
2022-10-07T00:38:30.129Z,102244.38
2022-10-07T00:40:57.776Z,102242.53
2022-10-07T00:43:27.304Z,102234.91
2022-10-07T00:45:58.392Z,102234.84
2022-10-07T00:48:29.133Z,102227.81
2022-10-07T00:50:59.604Z,102227.50
2022-10-07T00:53:29.585Z,102221.84
2022-10-07T00:56:03.059Z,102228.50
2022-10-07T00:58:31.607Z,102216.13
2022-10-07T01:00:59.422Z,102217.44
2022-10-07T01:03:27.134Z,102208.38
2022-10-07T01:05:54.840Z,102215.81
2022-10-07T01:08:24.077Z,102207.59
2022-10-07T01:10:59.550Z,102208.31
2022-10-07T01:13:32.397Z,102195.22
2022-10-07T01:16:04.256Z,102192.38
2022-10-07T01:18:34.609Z,102194.63
2022-10-07T01:21:07.091Z,102194.28
2022-10-07T01:23:47.902Z,102179.84
2022-10-07T01:26:40.998Z,102181.13
2022-10-07T01:29:12.767Z,102169.13
2022-10-07T01:31:44.921Z,102170.47
2022-10-07T01:34:13.916Z,102158.81
2022-10-07T01:36:42.750Z,102153.47
2022-10-07T01:39:14.036Z,102156.38
2022-10-07T01:41:43.029Z,102143.88
2022-10-07T01:44:15.072Z,102144.34
2022-10-07T01:46:44.397Z,102142.84
2022-10-07T01:49:12.061Z,102141.44
2022-10-07T01:51:41.100Z,102136.03
2022-10-07T01:54:17.361Z,102140.19
2022-10-07T01:57:02.997Z,102136.41
2022-10-07T01:59:47.968Z,102144.28
2022-10-07T02:02:24.237Z,102139.72
2022-10-07T02:04:58.978Z,102138.63
2022-10-07T02:07:34.422Z,102124.00
2022-10-07T02:10:09.184Z,102129.94
2022-10-07T02:12:41.845Z,102123.81
2022-10-07T02:15:14.023Z,102110.50
2022-10-07T02:17:47.077Z,102116.38
2022-10-07T02:20:16.021Z,102112.81
2022-10-07T02:22:44.473Z,102111.31
2022-10-07T02:25:13.429Z,102116.38
2022-10-07T02:27:43.918Z,102112.09
2022-10-07T02:30:13.820Z,102105.75
2022-10-07T02:32:44.057Z,102107.72
2022-10-07T02:35:18.719Z,102098.59
2022-10-07T02:37:48.284Z,102097.44
2022-10-07T02:40:16.186Z,102095.00
2022-10-07T02:42:53.271Z,102096.81
2022-10-07T02:45:26.764Z,102098.56
2022-10-07T02:47:59.039Z,102092.72
2022-10-07T02:50:28.735Z,102083.59
2022-10-07T02:52:57.188Z,102079.09
2022-10-07T02:55:26.921Z,102078.78
2022-10-07T02:57:58.952Z,102080.94
2022-10-07T03:00:27.418Z,102079.09
2022-10-07T03:02:56.395Z,102078.03
2022-10-07T03:05:25.884Z,102079.69
2022-10-07T03:07:55.984Z,102076.22
2022-10-07T03:10:26.670Z,102073.44
2022-10-07T03:12:55.960Z,102074.50
2022-10-07T03:15:24.004Z,102073.06
2022-10-07T03:17:51.661Z,102073.13
2022-10-07T03:20:19.317Z,102066.94
2022-10-07T03:22:46.988Z,102067.75
2022-10-07T03:25:15.334Z,102066.00
2022-10-07T03:27:43.746Z,102062.63
2022-10-07T03:30:13.868Z,102060.19
2022-10-07T03:32:41.697Z,102064.38
2022-10-07T03:35:10.488Z,102067.75
2022-10-07T03:37:38.151Z,102063.47
2022-10-07T03:40:06.780Z,102060.91
2022-10-07T03:42:34.476Z,102055.22
2022-10-07T03:45:02.125Z,102048.91
2022-10-07T03:47:31.124Z,102044.28
2022-10-07T03:49:58.769Z,102043.75
2022-10-07T03:52:26.416Z,102044.88
2022-10-07T03:54:56.388Z,102042.19
2022-10-07T03:57:42.156Z,102039.41
2022-10-07T04:00:10.887Z,102039.09
2022-10-07T04:02:40.122Z,102028.16
2022-10-07T04:05:08.394Z,102030.31
2022-10-07T04:07:36.023Z,102032.59
2022-10-07T04:10:03.675Z,102022.69
2022-10-07T04:12:33.464Z,102024.56
2022-10-07T04:15:03.042Z,102026.28
2022-10-07T04:17:31.592Z,102025.06
2022-10-07T04:20:01.072Z,102026.97
2022-10-07T04:22:28.716Z,102020.59
2022-10-07T04:25:13.979Z,102013.38
2022-10-07T04:27:51.604Z,102016.03
2022-10-07T04:30:19.877Z,102013.50
2022-10-07T04:32:48.545Z,102013.50
2022-10-07T04:35:17.590Z,102012.44
2022-10-07T04:37:45.479Z,102010.88
2022-10-07T04:40:13.316Z,102012.09
2022-10-07T04:42:58.697Z,102015.63
2022-10-07T04:45:26.547Z,102008.13
2022-10-07T04:47:54.215Z,102012.44
2022-10-07T04:50:23.233Z,102013.28
2022-10-07T04:52:51.136Z,102008.69
2022-10-07T04:55:18.787Z,102012.09
2022-10-07T04:57:46.828Z,102002.84
2022-10-07T05:00:14.987Z,101998.03
2022-10-07T05:02:44.607Z,102000.56
2022-10-07T05:05:12.225Z,101995.34
2022-10-07T05:07:41.737Z,101990.06
2022-10-07T05:10:11.000Z,101988.69
2022-10-07T05:12:41.473Z,101992.81
2022-10-07T05:15:10.178Z,101988.31
2022-10-07T05:17:40.268Z,101984.56
2022-10-07T05:20:08.894Z,101984.53
2022-10-07T05:22:36.860Z,101984.91
2022-10-07T05:25:06.875Z,101985.25
2022-10-07T05:27:34.745Z,101979.81
2022-10-07T05:30:02.981Z,101983.53
2022-10-07T05:32:30.645Z,101979.59
2022-10-07T05:34:58.298Z,101982.28
2022-10-07T05:37:25.959Z,101977.44
2022-10-07T05:39:53.626Z,101975.19
2022-10-07T05:42:22.964Z,101981.56
2022-10-07T05:44:50.660Z,101972.94
2022-10-07T05:47:18.835Z,101975.41
2022-10-07T05:49:46.546Z,101979.69
2022-10-07T05:52:14.191Z,101981.59
2022-10-07T05:54:41.840Z,101980.09
2022-10-07T05:57:09.517Z,101978.97
2022-10-07T05:59:38.495Z,101978.31
2022-10-07T06:02:06.211Z,101978.66
2022-10-07T06:04:33.942Z,101982.03
2022-10-07T06:07:03.998Z,101970.22
2022-10-07T06:09:49.343Z,101983.22
2022-10-07T06:12:34.564Z,101977.06
2022-10-07T06:15:03.644Z,101967.72
2022-10-07T06:17:31.304Z,101971.69
2022-10-07T06:19:58.923Z,101966.47
2022-10-07T06:22:26.576Z,101972.06
2022-10-07T06:24:57.648Z,101977.06
2022-10-07T06:27:25.561Z,101963.66
2022-10-07T06:29:53.211Z,101967.53
2022-10-07T06:32:22.272Z,101973.56
2022-10-07T06:34:49.913Z,101969.63
2022-10-07T06:37:18.082Z,101968.00
2022-10-07T06:39:45.805Z,101968.38
2022-10-07T06:42:13.593Z,101969.13
2022-10-07T06:44:41.243Z,101972.50
2022-10-07T06:47:11.631Z,101963.03
2022-10-07T06:49:41.149Z,101968.81
2022-10-07T06:52:09.413Z,101964.91
2022-10-07T06:54:37.059Z,101968.84
2022-10-07T06:57:26.236Z,101959.16
2022-10-07T06:59:55.251Z,101962.19
2022-10-07T07:02:25.286Z,101965.50
2022-10-07T07:04:57.685Z,101955.38
2022-10-07T07:07:25.880Z,101960.75
2022-10-07T07:09:54.184Z,101958.41
2022-10-07T07:12:22.603Z,101961.25
2022-10-07T07:14:50.293Z,101957.47
2022-10-07T07:17:18.801Z,101949.22
2022-10-07T07:19:46.468Z,101963.25
2022-10-07T07:22:15.468Z,101960.81
2022-10-07T07:24:43.127Z,101952.41
2022-10-07T07:27:12.140Z,101948.69
2022-10-07T07:29:40.657Z,101951.56
2022-10-07T07:32:08.324Z,101945.38
2022-10-07T07:34:38.021Z,101937.06
2022-10-07T07:37:05.753Z,101941.81
2022-10-07T07:39:34.896Z,101937.28
2022-10-07T07:42:05.121Z,101934.34
2022-10-07T07:44:34.876Z,101939.38
2022-10-07T07:47:06.180Z,101938.94
2022-10-07T07:49:34.187Z,101930.50
2022-10-07T07:52:03.903Z,101927.06
2022-10-07T07:54:31.557Z,101923.63
2022-10-07T07:57:00.575Z,101922.28
2022-10-07T07:59:31.138Z,101917.78
2022-10-07T08:01:58.927Z,101916.78
2022-10-07T08:04:26.711Z,101921.78
2022-10-07T08:06:55.479Z,101914.59
2022-10-07T08:09:23.993Z,101921.13
2022-10-07T08:11:51.635Z,101908.50
2022-10-07T08:14:22.697Z,101912.50
2022-10-07T08:16:51.305Z,101913.97
2022-10-07T08:19:19.193Z,101910.44
2022-10-07T08:21:46.841Z,101901.09
2022-10-07T08:24:14.917Z,101898.22
2022-10-07T08:26:42.623Z,101892.41
2022-10-07T08:29:10.393Z,101904.66
2022-10-07T08:31:42.106Z,101899.94
2022-10-07T08:34:11.153Z,101891.97
2022-10-07T08:36:39.605Z,101899.94
2022-10-07T08:39:07.764Z,101888.56
2022-10-07T08:41:43.913Z,101883.97
2022-10-07T08:44:19.192Z,101874.22
2022-10-07T08:46:55.654Z,101872.47
2022-10-07T08:49:29.328Z,101876.91
2022-10-07T08:51:59.788Z,101872.31
2022-10-07T08:54:30.646Z,101866.22
2022-10-07T08:57:00.968Z,101874.09
2022-10-07T08:59:32.161Z,101862.38
2022-10-07T09:02:11.845Z,101856.47
2022-10-07T09:04:47.896Z,101846.00
2022-10-07T09:07:17.297Z,101856.81
2022-10-07T09:09:51.518Z,101847.03
2022-10-07T09:12:22.736Z,101853.28
2022-10-07T09:14:52.521Z,101846.56
2022-10-07T09:17:26.043Z,101844.88
2022-10-07T09:19:56.521Z,101840.16
2022-10-07T09:22:31.817Z,101835.06
2022-10-07T09:25:10.529Z,101836.16
2022-10-07T09:27:39.256Z,101828.97
2022-10-07T09:30:08.026Z,101832.06
2022-10-07T09:32:39.036Z,101818.28
2022-10-07T09:35:07.193Z,101830.00
2022-10-07T09:37:34.849Z,101821.44
2022-10-07T09:40:20.692Z,101808.28
2022-10-07T09:42:49.540Z,101811.84
2022-10-07T09:45:23.104Z,101804.25
2022-10-07T09:47:57.080Z,101804.56
2022-10-07T09:50:33.059Z,101805.81
2022-10-07T09:53:02.438Z,101798.31
2022-10-07T09:55:37.482Z,101788.63
2022-10-07T09:58:07.001Z,101790.84
2022-10-07T10:00:42.818Z,101787.09
2022-10-07T10:03:11.962Z,101798.09
2022-10-07T10:05:40.945Z,101783.63
2022-10-07T10:08:22.629Z,101782.06
2022-10-07T10:10:51.582Z,101780.84
2022-10-07T10:13:27.049Z,101787.09
2022-10-07T10:15:54.731Z,101774.00
2022-10-07T10:18:36.146Z,101771.72
2022-10-07T10:21:27.296Z,101765.97
2022-10-07T10:23:57.244Z,101762.03
2022-10-07T10:26:50.836Z,101759.38
2022-10-07T10:29:27.992Z,101761.63
2022-10-07T10:32:38.475Z,101741.00
2022-10-07T10:35:14.673Z,101756.91
2022-10-07T10:38:10.864Z,101753.41
2022-10-07T10:40:41.210Z,101754.47
2022-10-07T10:43:20.150Z,101741.03
2022-10-07T10:45:57.693Z,101749.16
2022-10-07T10:48:30.043Z,101750.47
2022-10-07T10:51:05.845Z,101741.88
2022-10-07T10:53:40.323Z,101729.81
2022-10-07T10:56:16.337Z,101730.66
2022-10-07T10:58:54.193Z,101722.28
2022-10-07T11:01:26.481Z,101724.53
2022-10-07T11:04:13.433Z,101708.31
2022-10-07T11:06:46.510Z,101706.50
2022-10-07T11:09:17.421Z,101704.16
2022-10-07T11:11:45.493Z,101702.34
2022-10-07T11:14:16.104Z,101697.75
2022-10-07T11:16:47.068Z,101692.63
2022-10-07T11:19:20.051Z,101696.09
2022-10-07T11:21:50.700Z,101691.06
2022-10-07T11:24:21.395Z,101696.50
2022-10-07T11:26:51.296Z,101684.31
2022-10-07T11:29:31.807Z,101681.84
2022-10-07T11:32:03.005Z,101665.44
2022-10-07T11:34:37.134Z,101665.59
2022-10-07T11:37:09.866Z,101665.09
2022-10-07T11:39:38.108Z,101660.34
2022-10-07T11:42:09.297Z,101656.50
2022-10-07T11:44:41.200Z,101660.16
2022-10-07T11:47:12.988Z,101652.41
2022-10-07T11:49:44.453Z,101656.13
2022-10-07T11:52:23.249Z,101651.31
2022-10-07T11:54:54.716Z,101638.34
2022-10-07T11:57:25.624Z,101637.59
2022-10-07T11:59:59.684Z,101630.53
2022-10-07T12:02:41.415Z,101625.03
2022-10-07T12:05:47.507Z,101621.38
2022-10-07T12:08:31.361Z,101617.63
2022-10-07T12:11:44.270Z,101606.78
2022-10-07T12:14:36.335Z,101610.34
2022-10-07T12:17:25.062Z,101600.44
2022-10-07T12:20:29.929Z,101594.00
2022-10-07T12:23:49.449Z,101594.44
2022-10-07T12:26:50.246Z,101584.09
2022-10-07T12:29:32.418Z,101586.84
2022-10-07T12:32:00.614Z,101576.44
2022-10-07T12:34:39.169Z,101579.75
2022-10-07T12:37:46.116Z,101563.28
2022-10-07T12:40:29.353Z,101565.56
2022-10-07T12:43:03.484Z,101557.72
2022-10-07T12:45:35.092Z,101555.06
2022-10-07T12:48:04.046Z,101558.47
2022-10-07T12:50:34.313Z,101557.31
2022-10-07T12:53:04.007Z,101551.66
2022-10-07T12:55:33.378Z,101552.63
2022-10-07T12:58:15.789Z,101544.84
2022-10-07T13:00:55.586Z,101541.50
2022-10-07T13:03:51.880Z,101524.69
2022-10-07T13:06:42.915Z,101540.56
2022-10-07T13:09:44.927Z,101533.16
2022-10-07T13:12:27.853Z,101525.97
2022-10-07T13:15:03.293Z,101518.78
2022-10-07T13:17:44.589Z,101521.66
2022-10-07T13:20:22.780Z,101522.75
2022-10-07T13:22:50.944Z,101518.25
2022-10-07T13:25:20.309Z,101518.78
2022-10-07T13:27:52.755Z,101516.34
2022-10-07T13:30:34.944Z,101513.91
2022-10-07T13:33:31.652Z,101508.03
2022-10-07T13:36:14.335Z,101507.13
2022-10-07T13:38:41.994Z,101515.75
2022-10-07T13:41:16.086Z,101514.94
2022-10-07T13:43:44.664Z,101505.75
2022-10-07T13:46:14.317Z,101498.06
2022-10-07T13:48:45.781Z,101496.84
2022-10-07T13:51:20.257Z,101495.00
2022-10-07T13:53:53.069Z,101498.88
2022-10-07T13:56:24.761Z,101484.50
2022-10-07T13:58:55.063Z,101479.22
2022-10-07T14:01:27.055Z,101483.81
2022-10-07T14:04:03.975Z,101472.16
2022-10-07T14:06:45.953Z,101467.78
2022-10-07T14:09:22.047Z,101459.19
2022-10-07T14:11:54.223Z,101455.38
2022-10-07T14:14:24.637Z,101447.66
2022-10-07T14:16:59.068Z,101447.06
2022-10-07T14:19:32.854Z,101446.41
2022-10-07T14:22:02.879Z,101434.75
2022-10-07T14:24:30.725Z,101430.00
2022-10-07T14:26:58.407Z,101437.91
2022-10-07T14:29:37.803Z,101429.75
2022-10-07T14:32:29.497Z,101431.91
2022-10-07T14:35:24.408Z,101426.44
2022-10-07T14:37:52.088Z,101427.56
2022-10-07T14:40:22.376Z,101416.13
2022-10-07T14:42:53.143Z,101406.38
2022-10-07T14:45:21.998Z,101419.34
2022-10-07T14:47:50.597Z,101414.06
2022-10-07T14:50:20.219Z,101397.66
2022-10-07T14:52:51.630Z,101404.53
2022-10-07T14:55:22.132Z,101396.06
2022-10-07T14:57:50.005Z,101400.69
2022-10-07T15:00:20.038Z,101390.63
2022-10-07T15:02:50.075Z,101381.94
2022-10-07T15:05:19.625Z,101383.34
2022-10-07T15:07:47.408Z,101381.06
2022-10-07T15:10:17.193Z,101378.09
2022-10-07T15:12:45.329Z,101381.63
2022-10-07T15:15:13.944Z,101382.94
2022-10-07T15:17:42.247Z,101365.66
2022-10-07T15:20:11.231Z,101373.81
2022-10-07T15:22:40.312Z,101366.25
2022-10-07T15:25:09.224Z,101368.91
2022-10-07T15:27:37.610Z,101362.44
2022-10-07T15:30:07.074Z,101372.75
2022-10-07T15:32:34.812Z,101363.72
2022-10-07T15:35:02.480Z,101351.25
2022-10-07T15:37:30.112Z,101356.69
2022-10-07T15:39:59.708Z,101353.44
2022-10-07T15:42:27.826Z,101355.06
2022-10-07T15:44:55.532Z,101352.81
2022-10-07T15:47:23.221Z,101348.53
2022-10-07T15:49:50.908Z,101350.97
2022-10-07T15:52:18.765Z,101349.66
2022-10-07T15:54:46.542Z,101349.13
2022-10-07T15:57:15.934Z,101337.44
2022-10-07T15:59:43.649Z,101337.97
2022-10-07T16:02:15.163Z,101347.47
2022-10-07T16:04:42.956Z,101342.81
2022-10-07T16:07:11.100Z,101339.31
2022-10-07T16:09:39.078Z,101336.63
2022-10-07T16:12:08.455Z,101334.16
2022-10-07T16:14:37.494Z,101333.91
2022-10-07T16:17:05.238Z,101323.03
2022-10-07T16:19:32.899Z,101330.06
2022-10-07T16:22:00.547Z,101331.69
2022-10-07T16:24:34.726Z,101332.75
2022-10-07T16:27:04.856Z,101332.72
2022-10-07T16:29:50.220Z,101333.56
2022-10-07T16:32:19.212Z,101325.97
2022-10-07T16:34:48.141Z,101330.34
2022-10-07T16:37:16.100Z,101324.94
2022-10-07T16:39:43.747Z,101320.25
2022-10-07T16:42:11.425Z,101323.53
2022-10-07T16:44:39.080Z,101323.53
2022-10-07T16:47:06.748Z,101318.91
2022-10-07T16:49:36.350Z,101317.81
2022-10-07T16:52:04.422Z,101321.31
2022-10-07T16:54:35.105Z,101326.53
2022-10-07T16:57:02.809Z,101330.03
2022-10-07T16:59:30.723Z,101327.56
2022-10-07T17:02:03.008Z,101321.06
2022-10-07T17:04:30.692Z,101324.03
2022-10-07T17:06:59.704Z,101325.91
2022-10-07T17:09:27.396Z,101325.66
2022-10-07T17:11:56.662Z,101322.69
2022-10-07T17:14:24.862Z,101321.88
2022-10-07T17:16:54.024Z,101326.75
2022-10-07T17:19:25.095Z,101319.94
2022-10-07T17:21:53.711Z,101322.41
2022-10-07T17:24:23.672Z,101318.88
2022-10-07T17:26:52.322Z,101322.16
2022-10-07T17:29:21.712Z,101325.41
2022-10-07T17:31:50.542Z,101327.03
2022-10-07T17:34:20.350Z,101322.72
2022-10-07T17:36:48.577Z,101316.47
2022-10-07T17:39:17.182Z,101312.13
2022-10-07T17:41:46.209Z,101311.88
2022-10-07T17:44:15.822Z,101316.22
2022-10-07T17:46:43.633Z,101312.63
2022-10-07T17:49:13.077Z,101314.59
2022-10-07T17:51:42.418Z,101311.06
2022-10-07T17:54:11.778Z,101306.94
2022-10-07T17:56:40.127Z,101309.38
2022-10-07T17:59:09.230Z,101306.13
2022-10-07T18:01:37.610Z,101305.78
2022-10-07T18:04:07.585Z,101307.50
2022-10-07T18:06:37.600Z,101317.81
2022-10-07T18:09:06.312Z,101302.16
2022-10-07T18:11:51.788Z,101294.00
2022-10-07T18:14:38.496Z,101299.38
2022-10-07T18:17:07.651Z,101297.22
2022-10-07T18:19:35.379Z,101293.13
2022-10-07T18:22:05.408Z,101300.44
2022-10-07T18:24:34.218Z,101290.66
2022-10-07T18:27:03.265Z,101292.34
2022-10-07T18:29:35.880Z,101296.13
2022-10-07T18:32:06.114Z,101284.97
2022-10-07T18:34:34.027Z,101282.53
2022-10-07T18:37:01.937Z,101278.25
2022-10-07T18:39:29.966Z,101273.44
2022-10-07T18:41:58.141Z,101268.25
2022-10-07T18:44:26.076Z,101268.03
2022-10-07T18:46:55.088Z,101262.66
2022-10-07T18:49:22.885Z,101257.25
2022-10-07T18:51:51.207Z,101249.63
2022-10-07T18:54:19.297Z,101256.03
2022-10-07T18:56:47.692Z,101251.16
2022-10-07T18:59:15.489Z,101250.38
2022-10-07T19:01:47.948Z,101262.50
2022-10-07T19:04:19.407Z,101252.94
2022-10-07T19:06:47.736Z,101245.28
2022-10-07T19:09:17.899Z,101240.03
2022-10-07T19:11:45.928Z,101240.03
2022-10-07T19:14:13.137Z,101247.34
2022-10-07T19:16:42.004Z,101245.25
2022-10-07T19:19:12.151Z,101243.34
2022-10-07T19:21:41.760Z,101234.13
2022-10-07T19:24:16.046Z,101237.66
2022-10-07T19:26:45.613Z,101234.78
2022-10-07T19:29:14.134Z,101236.09
2022-10-07T19:31:44.029Z,101235.78
2022-10-07T19:34:13.433Z,101235.19
2022-10-07T19:36:46.694Z,101235.81
2022-10-07T19:39:15.748Z,101228.66
2022-10-07T19:41:44.129Z,101232.38
2022-10-07T19:44:12.677Z,101229.03
2022-10-07T19:46:40.392Z,101214.13
2022-10-07T19:49:09.175Z,101210.41
2022-10-07T19:51:38.727Z,101205.50
2022-10-07T19:54:10.547Z,101198.75
2022-10-07T19:56:39.156Z,101193.50
2022-10-07T19:59:08.621Z,101197.03
2022-10-07T20:01:39.206Z,101194.47
2022-10-07T20:04:08.696Z,101199.41
2022-10-07T20:06:37.427Z,101193.53
2022-10-07T20:09:05.997Z,101183.53
2022-10-07T20:11:35.620Z,101187.56
2022-10-07T20:14:06.480Z,101190.22
2022-10-07T20:16:35.029Z,101188.09
2022-10-07T20:19:05.516Z,101186.50
2022-10-07T20:21:35.393Z,101191.69
2022-10-07T20:24:04.557Z,101189.28
2022-10-07T20:26:35.350Z,101186.41
2022-10-07T20:29:05.397Z,101185.03
2022-10-07T20:31:34.780Z,101184.78
2022-10-07T20:34:07.766Z,101183.44
2022-10-07T20:36:37.027Z,101186.41
2022-10-07T20:39:23.620Z,101183.66
2022-10-07T20:42:10.817Z,101177.44
2022-10-07T20:44:38.513Z,101179.31
2022-10-07T20:47:08.742Z,101177.72
2022-10-07T20:49:38.431Z,101176.56
2022-10-07T20:52:08.826Z,101170.06
2022-10-07T20:54:36.514Z,101168.28
2022-10-07T20:57:05.935Z,101167.72
2022-10-07T20:59:34.728Z,101160.63
2022-10-07T21:02:09.435Z,101164.44
2022-10-07T21:04:38.340Z,101158.75
2022-10-07T21:07:06.314Z,101155.44
2022-10-07T21:09:36.164Z,101155.22
2022-10-07T21:12:09.610Z,101153.34
2022-10-07T21:14:37.602Z,101153.56
2022-10-07T21:17:08.269Z,101146.47
2022-10-07T21:19:36.579Z,101149.50
2022-10-07T21:22:06.976Z,101142.22
2022-10-07T21:24:35.079Z,101133.19
2022-10-07T21:27:04.496Z,101137.56
2022-10-07T21:29:38.988Z,101136.94
2022-10-07T21:32:08.319Z,101139.19
2022-10-07T21:34:36.000Z,101133.22
2022-10-07T21:37:04.504Z,101129.94
2022-10-07T21:39:32.267Z,101125.06
2022-10-07T21:41:59.964Z,101128.88
2022-10-07T21:44:28.849Z,101123.44
2022-10-07T21:46:59.636Z,101119.44
2022-10-07T21:49:27.285Z,101120.25
2022-10-07T21:51:54.950Z,101109.66
2022-10-07T21:54:22.657Z,101106.41
2022-10-07T21:56:50.320Z,101101.25
2022-10-07T21:59:18.226Z,101095.78
2022-10-07T22:01:45.965Z,101094.50
2022-10-07T22:04:17.355Z,101088.31
2022-10-07T22:07:02.962Z,101091.50
2022-10-07T22:09:31.665Z,101083.41
2022-10-07T22:11:59.414Z,101085.56
2022-10-07T22:14:27.572Z,101075.28
2022-10-07T22:16:55.271Z,101069.56
2022-10-07T22:19:25.093Z,101070.41
2022-10-07T22:21:52.869Z,101070.66
2022-10-07T22:24:21.964Z,101063.63
2022-10-07T22:26:51.244Z,101064.72
2022-10-07T22:29:19.739Z,101055.75
2022-10-07T22:31:47.980Z,101050.88
2022-10-07T22:34:29.656Z,101053.06
2022-10-07T22:36:58.855Z,101045.47
2022-10-07T22:39:26.536Z,101045.41
2022-10-07T22:41:54.212Z,101044.31
2022-10-07T22:44:21.884Z,101041.59
2022-10-07T22:46:49.657Z,101048.66
2022-10-07T22:49:17.365Z,101040.25
2022-10-07T22:51:45.051Z,101031.84
2022-10-07T22:54:14.823Z,101042.97
2022-10-07T22:56:42.486Z,101036.22
2022-10-07T22:59:10.884Z,101035.66
2022-10-07T23:01:38.567Z,101025.69
2022-10-07T23:04:06.257Z,101026.41
2022-10-07T23:06:35.854Z,101025.78
2022-10-07T23:09:04.780Z,101021.81
2022-10-07T23:11:34.563Z,101022.63
2022-10-07T23:14:04.350Z,101022.41
2022-10-07T23:16:33.893Z,101021.59
2022-10-07T23:19:02.135Z,101025.34
2022-10-07T23:21:33.988Z,101022.66
2022-10-07T23:24:07.423Z,101013.72
2022-10-07T23:26:38.351Z,101010.69
2022-10-07T23:29:07.492Z,101007.19
2022-10-07T23:31:35.524Z,101004.16
2022-10-07T23:34:04.068Z,101003.06
2022-10-07T23:36:32.230Z,101006.28
2022-10-07T23:39:00.999Z,101007.91
2022-10-07T23:41:30.913Z,101003.59
2022-10-07T23:44:01.756Z,100997.09
2022-10-07T23:46:31.725Z,100991.16
2022-10-07T23:48:59.764Z,100987.94
2022-10-07T23:51:28.672Z,100987.34
2022-10-07T23:53:57.080Z,100992.22
2022-10-07T23:56:24.784Z,100986.63
2022-10-07T23:58:52.513Z,100981.06
